Map

Track Data

SID SEASON NUMBER BASIN SUBBASIN NAME ISO_TIME NATURE LAT LON WMO_WIND WMO_PRES WMO_AGENCY TRACK_TYPE DIST2LAND LANDFALL IFLAG USA_AGENCY USA_ATCF_ID USA_LAT USA_LON USA_RECORD USA_STATUS USA_WIND USA_PRES USA_SSHS USA_R34_NE USA_R34_SE USA_R34_SW USA_R34_NW USA_R50_NE USA_R50_SE USA_R50_SW USA_R50_NW USA_R64_NE USA_R64_SE USA_R64_SW USA_R64_NW USA_POCI USA_ROCI USA_RMW USA_EYE TOKYO_LAT TOKYO_LON TOKYO_GRADE TOKYO_WIND TOKYO_PRES TOKYO_R50_DIR TOKYO_R50_LONG TOKYO_R50_SHORT TOKYO_R30_DIR TOKYO_R30_LONG TOKYO_R30_SHORT TOKYO_LAND CMA_LAT CMA_LON CMA_CAT CMA_WIND CMA_PRES HKO_LAT HKO_LON HKO_CAT HKO_WIND HKO_PRES NEWDELHI_LAT NEWDELHI_LON NEWDELHI_GRADE NEWDELHI_WIND NEWDELHI_PRES NEWDELHI_CI NEWDELHI_DP NEWDELHI_POCI REUNION_LAT REUNION_LON REUNION_TYPE REUNION_WIND REUNION_PRES REUNION_TNUM REUNION_CI REUNION_RMW REUNION_R34_NE REUNION_R34_SE REUNION_R34_SW REUNION_R34_NW REUNION_R50_NE REUNION_R50_SE REUNION_R50_SW REUNION_R50_NW REUNION_R64_NE REUNION_R64_SE REUNION_R64_SW REUNION_R64_NW BOM_LAT BOM_LON BOM_TYPE BOM_WIND BOM_PRES BOM_TNUM BOM_CI BOM_RMW BOM_R34_NE BOM_R34_SE BOM_R34_SW BOM_R34_NW BOM_R50_NE BOM_R50_SE BOM_R50_SW BOM_R50_NW BOM_R64_NE BOM_R64_SE BOM_R64_SW BOM_R64_NW BOM_ROCI BOM_POCI BOM_EYE BOM_POS_METHOD BOM_PRES_METHOD NADI_LAT NADI_LON NADI_CAT NADI_WIND NADI_PRES WELLINGTON_LAT WELLINGTON_LON WELLINGTON_WIND WELLINGTON_PRES DS824_LAT DS824_LON DS824_STAGE DS824_WIND DS824_PRES TD9636_LAT TD9636_LON TD9636_STAGE TD9636_WIND TD9636_PRES TD9635_LAT TD9635_LON TD9635_WIND TD9635_PRES TD9635_ROCI NEUMANN_LAT NEUMANN_LON NEUMANN_CLASS NEUMANN_WIND NEUMANN_PRES MLC_LAT MLC_LON MLC_CLASS MLC_WIND MLC_PRES USA_GUST BOM_GUST BOM_GUST_PER REUNION_GUST REUNION_GUST_PER USA_SEAHGT USA_SEARAD_NE USA_SEARAD_SE USA_SEARAD_SW USA_SEARAD_NW STORM_SPEED STORM_DIR
1974304N24301 1974 126 NA NA NOT_NAMED 1974-10-30 12:00:00 TS 23.5000 -59.5000 25 hurdat_atl main 852 852 O_____________ hurdat_atl AL191974 23.5000 -59.5000 TD 25 -1 12 22
1974304N24301 1974 126 NA NA NOT_NAMED 1974-10-30 15:00:00 TS 24.0526 -59.2504 main 912 912 P_____________ AL191974 24.0526 -59.2504 TD 25 -1 12 23
1974304N24301 1974 126 NA NA NOT_NAMED 1974-10-30 18:00:00 TS 24.6000 -59.0000 25 hurdat_atl main 972 972 O_____________ hurdat_atl AL191974 24.6000 -59.0000 TD 25 -1 12 23
1974304N24301 1974 126 NA NA NOT_NAMED 1974-10-30 21:00:00 TS 25.1425 -58.7497 main 1033 1033 P_____________ AL191974 25.1425 -58.7497 TD 25 -1 12 22
1974304N24301 1974 126 NA NA NOT_NAMED 1974-10-31 00:00:00 TS 25.7000 -58.5000 25 hurdat_atl main 1095 1095 O_____________ hurdat_atl AL191974 25.7000 -58.5000 TD 25 -1 12 21
1974304N24301 1974 126 NA NA NOT_NAMED 1974-10-31 03:00:00 TS 26.3000 -58.2498 main 1165 1165 P_____________ AL191974 26.3000 -58.2498 TD 25 -1 13 20
1974304N24301 1974 126 NA NA NOT_NAMED 1974-10-31 06:00:00 TS 26.9000 -58.0000 25 hurdat_atl main 1228 1228 O_____________ hurdat_atl AL191974 26.9000 -58.0000 TD 25 -1 12 20
1974304N24301 1974 126 NA NA NOT_NAMED 1974-10-31 09:00:00 TS 27.4647 -57.7793 main 1292 1292 P_____________ AL191974 27.4647 -57.7793 TD 25 -1 12 22
1974304N24301 1974 126 NA NA NOT_NAMED 1974-10-31 12:00:00 TS 28.0000 -57.5000 25 hurdat_atl main 1354 1354 O_____________ hurdat_atl AL191974 28.0000 -57.5000 TD 25 -1 12 31
1974304N24301 1974 126 NA NA NOT_NAMED 1974-10-31 15:00:00 TS 28.5076 -57.0799 main 1421 1421 P_____________ AL191974 28.5076 -57.0799 TD 25 -1 13 38
1974304N24301 1974 126 NA NA NOT_NAMED 1974-10-31 18:00:00 TS 29.0000 -56.6000 25 hurdat_atl main 1496 1496 O_____________ hurdat_atl AL191974 29.0000 -56.6000 TD 25 -1 13 39
1974304N24301 1974 126 NA NA NOT_NAMED 1974-10-31 21:00:00 TS 29.4998 -56.1496 main 1569 1569 P_____________ AL191974 29.4998 -56.1496 TD 25 -1 13 38
1974304N24301 1974 126 NA NA NOT_NAMED 1974-11-01 00:00:00 TS 30.0000 -55.7000 25 hurdat_atl main 1637 1637 O_____________ hurdat_atl AL191974 30.0000 -55.7000 TD 25 -1 13 38
1974304N24301 1974 126 NA NA NOT_NAMED 1974-11-01 03:00:00 TS 30.4999 -55.2422 main 1699 1669 P_____________ AL191974 30.4999 -55.2422 TD 25 -1 13 38
1974304N24301 1974 126 NA NA NOT_NAMED 1974-11-01 06:00:00 TS 31.0000 -54.8000 25 hurdat_atl main 1669 1628 O_____________ hurdat_atl AL191974 31.0000 -54.8000 TD 25 -1 12 33
1974304N24301 1974 126 NA NA NOT_NAMED 1974-11-01 09:00:00 TS 31.5367 -54.4444 main 1631 1588 P_____________ AL191974 31.5367 -54.4444 TD 25 -1 12 34
1974304N24301 1974 126 NA NA NOT_NAMED 1974-11-01 12:00:00 TS 32.0000 -54.0000 25 hurdat_atl main 1591 1580 O_____________ hurdat_atl AL191974 32.0000 -54.0000 TD 25 -1 12 52
1974304N24301 1974 126 NA NA NOT_NAMED 1974-11-01 15:00:00 TS 32.2878 -53.3019 main 1584 1569 P_____________ AL191974 32.2878 -53.3019 TD 22 -1 14 68
1974304N24301 1974 126 NA NA NOT_NAMED 1974-11-01 18:00:00 TS 32.5000 -52.5000 20 hurdat_atl main 1570 1550 O_____________ hurdat_atl AL191974 32.5000 -52.5000 TD 20 -1 14 71
1974304N24301 1974 126 NA NA NOT_NAMED 1974-11-01 21:00:00 TS 32.7496 -51.7496 main 1552 1524 P_____________ AL191974 32.7496 -51.7496 TD 20 -1 14 68
1974304N24301 1974 126 NA NA NOT_NAMED 1974-11-02 00:00:00 TS 33.0000 -51.0000 20 hurdat_atl main 1525 1508 O_____________ hurdat_atl AL191974 33.0000 -51.0000 TD 20 -1 14 68
1974304N24301 1974 126 NA NA NOT_NAMED 1974-11-02 03:00:00 TS 33.2495 -50.2496 main 1512 1489 P_____________ AL191974 33.2495 -50.2496 TD 20 -1 13 68
1974304N24301 1974 126 NA NA NOT_NAMED 1974-11-02 06:00:00 TS 33.5000 -49.5000 20 hurdat_atl main 1490 1478 O_____________ hurdat_atl AL191974 33.5000 -49.5000 TD 20 -1 13 68
1974304N24301 1974 126 NA NA NOT_NAMED 1974-11-02 09:00:00 TS 33.7509 -48.7509 main 1471 1466 P_____________ AL191974 33.7509 -48.7509 TD 20 -1 13 68
1974304N24301 1974 126 NA NA NOT_NAMED 1974-11-02 12:00:00 TS 34.0000 -48.0000 20 hurdat_atl main 1468 O_____________ hurdat_atl AL191974 34.0000 -48.0000 TD 20 -1 13 68

About IBTrACS Database

This database is a web-friendly format of International Best Track Archive for Climate Stewardship (IBTrACS), a global best track data archive curated by NOAA dating back to 1842.

Updated: 2021-12-08